Time;durP1;ratioP1;P1;durP2;ratioP2;P2;SDS_P1;SDS_P2;PMS_P1;PMS_P2;Temp;Humidity;BMP_temperature;BMP_pressure;BME280_temperature;BME280_humidity;BME280_pressure;Samples;Min_cycle;Max_cycle;Signal;HPM_P1;HPM_P2
2021/05/15 00:03:17;;;;;;;20.07;17.67;;;;;;;9.85;71.73;100669.44;6140794;28;20235;-46
2021/05/15 00:06:37;;;;;;;20.33;16.73;;;;;;;10.05;71.73;100670.09;6133725;28;20242;-49
2021/05/15 00:09:59;;;;;;;19.23;17.03;;;;;;;9.97;71.53;100663.25;6144441;28;20231;-48
2021/05/15 00:13:20;;;;;;;22.47;15.93;;;;;;;10.50;69.23;100655.81;6144406;29;20231;-47
2021/05/15 00:16:40;;;;;;;19.87;17.73;;;;;;;9.98;71.13;100665.84;6145080;28;20231;-48
2021/05/15 00:20:01;;;;;;;22.03;17.10;;;;;;;10.20;70.63;100670.84;6122668;28;20235;-50
2021/05/15 00:23:21;;;;;;;22.83;17.83;;;;;;;10.03;70.81;100674.44;6142827;28;20617;-51
2021/05/15 00:26:42;;;;;;;19.30;16.73;;;;;;;10.46;69.87;100667.13;6140608;28;20220;-48
2021/05/15 00:30:05;;;;;;;19.30;17.00;;;;;;;10.74;69.04;100670.25;6136355;28;20594;-48
2021/05/15 00:33:26;;;;;;;20.00;17.83;;;;;;;10.60;68.96;100670.44;6144001;29;20624;-52
2021/05/15 00:36:48;;;;;;;19.67;17.60;;;;;;;10.74;68.26;100660.72;6144431;28;20524;-48
2021/05/15 00:40:10;;;;;;;23.10;17.03;;;;;;;10.08;70.94;100663.13;6127255;29;20738;-50
2021/05/15 00:43:31;;;;;;;23.50;18.80;;;;;;;10.46;70.00;100656.72;6130667;29;20318;-51
2021/05/15 00:46:54;;;;;;;23.40;15.90;;;;;;;10.74;68.93;100652.91;6116141;28;20621;-45
2021/05/15 00:50:15;;;;;;;18.27;15.53;;;;;;;10.77;68.80;100660.69;6143483;28;20483;-48
2021/05/15 00:53:35;;;;;;;23.50;20.23;;;;;;;10.84;68.27;100659.72;6144372;28;20283;-49
2021/05/15 00:56:56;;;;;;;22.00;17.97;;;;;;;10.60;69.04;100647.88;6141517;29;20232;-46
2021/05/15 01:00:19;;;;;;;22.93;19.43;;;;;;;10.76;68.60;100645.94;6140552;28;20243;-45
2021/05/15 01:03:39;;;;;;;25.87;18.33;;;;;;;10.78;68.76;100654.59;6142779;29;20574;-51
2021/05/15 01:07:01;;;;;;;21.43;19.07;;;;;;;10.91;67.55;100646.63;6142498;29;20257;-47
2021/05/15 01:10:22;;;;;;;21.07;16.47;;;;;;;10.87;67.93;100652.75;6145953;28;20231;-47
2021/05/15 01:13:50;;;;;;;20.47;15.83;;;;;;;10.95;68.36;100646.56;6144706;29;20540;-45
2021/05/15 01:17:12;;;;;;;23.10;17.37;;;;;;;10.62;68.67;100647.84;6146759;28;20231;-51
2021/05/15 01:20:32;;;;;;;22.13;17.53;;;;;;;10.30;69.73;100642.97;6139911;29;20634;-46
2021/05/15 01:23:54;;;;;;;20.40;15.87;;;;;;;10.62;68.85;100640.03;6147601;28;20239;-49
2021/05/15 01:27:15;;;;;;;19.37;16.20;;;;;;;10.33;69.36;100641.25;6145503;28;20227;-49
2021/05/15 01:30:35;;;;;;;19.00;16.70;;;;;;;10.05;70.40;100646.69;6139396;28;20231;-50
2021/05/15 01:33:56;;;;;;;20.70;17.87;;;;;;;10.08;70.43;100644.91;6144591;28;20321;-53
2021/05/15 01:37:16;;;;;;;22.37;15.97;;;;;;;10.38;69.29;100639.44;6143855;28;20231;-50
2021/05/15 01:40:38;;;;;;;21.33;18.33;;;;;;;10.50;68.67;100634.97;6140916;28;20601;-52
2021/05/15 01:43:58;;;;;;;21.47;18.33;;;;;;;10.24;69.31;100631.75;6139269;29;20239;-50
2021/05/15 01:47:19;;;;;;;22.47;17.80;;;;;;;10.27;69.04;100625.63;6126874;29;20272;-49
2021/05/15 01:50:39;;;;;;;19.73;16.57;;;;;;;10.56;68.19;100633.16;6139710;29;20582;-53
2021/05/15 01:54:00;;;;;;;21.07;17.90;;;;;;;10.86;67.38;100623.25;6130791;29;20231;-49
2021/05/15 01:57:22;;;;;;;19.47;17.40;;;;;;;10.83;67.27;100621.53;6143484;28;20322;-51
2021/05/15 02:00:42;;;;;;;22.07;18.23;;;;;;;10.92;67.05;100620.56;6142333;29;20270;-47
2021/05/15 02:04:03;;;;;;;21.87;16.87;;;;;;;10.89;66.89;100620.56;6141687;29;20434;-48
2021/05/15 02:07:24;;;;;;;19.37;16.30;;;;;;;11.05;66.56;100616.03;6145107;28;20251;-52
2021/05/15 02:10:45;;;;;;;26.60;17.10;;;;;;;10.78;67.19;100620.75;6139404;29;20239;-51
2021/05/15 02:14:06;;;;;;;18.97;16.97;;;;;;;10.87;66.92;100618.88;6141507;28;20250;-48
2021/05/15 02:17:26;;;;;;;20.20;16.30;;;;;;;10.50;68.73;100614.16;6140369;28;20224;-50
2021/05/15 02:20:47;;;;;;;18.87;16.37;;;;;;;10.72;68.28;100613.00;6138362;29;20250;-51
2021/05/15 02:24:08;;;;;;;23.93;18.40;;;;;;;10.65;68.11;100611.34;6141236;29;20239;-53
2021/05/15 02:27:29;;;;;;;21.53;16.40;;;;;;;10.75;67.80;100612.09;6143197;28;20247;-48
2021/05/15 02:30:51;;;;;;;18.60;16.60;;;;;;;11.04;66.75;100603.88;6141126;29;20235;-52
2021/05/15 02:34:11;;;;;;;18.50;15.10;;;;;;;11.03;66.84;100602.16;6132003;28;20235;-48
2021/05/15 02:37:32;;;;;;;19.83;17.00;;;;;;;11.13;66.28;100608.13;6133500;28;20231;-51
2021/05/15 02:40:54;;;;;;;23.73;17.43;;;;;;;11.22;66.14;100598.41;6137458;28;20246;-47
2021/05/15 02:44:14;;;;;;;21.43;16.40;;;;;;;11.03;66.54;100594.31;6138097;28;20593;-47
2021/05/15 02:47:35;;;;;;;23.23;18.63;;;;;;;11.16;65.99;100601.09;6135804;28;20592;-52
2021/05/15 02:50:56;;;;;;;19.77;17.67;;;;;;;11.31;65.60;100597.41;6136735;28;20239;-46
2021/05/15 02:54:16;;;;;;;22.27;17.63;;;;;;;11.01;66.38;100601.31;6137803;28;20239;-47
2021/05/15 02:57:38;;;;;;;19.57;17.47;;;;;;;11.13;66.05;100593.31;6138968;28;20231;-50
2021/05/15 03:00:58;;;;;;;20.23;17.23;;;;;;;10.91;66.51;100590.16;6138898;28;20246;-48
2021/05/15 03:04:19;;;;;;;21.80;16.37;;;;;;;11.15;66.26;100596.78;6137281;28;20234;-49
2021/05/15 03:07:40;;;;;;;21.27;17.30;;;;;;;10.97;66.79;100592.69;6138439;29;20231;-50
2021/05/15 03:11:01;;;;;;;19.63;16.70;;;;;;;10.79;67.11;100585.97;6143694;28;20226;-47
2021/05/15 03:14:22;;;;;;;19.20;16.23;;;;;;;10.80;66.64;100587.72;6138409;28;21123;-45
2021/05/15 03:17:43;;;;;;;22.53;17.50;;;;;;;10.51;68.50;100576.81;6139047;29;20231;-44
2021/05/15 03:21:05;;;;;;;23.03;19.20;;;;;;;10.98;67.14;100591.78;6138458;28;20235;-48
2021/05/15 03:24:26;;;;;;;22.57;17.90;;;;;;;10.99;66.83;100587.44;6133859;28;20231;-48
2021/05/15 03:27:47;;;;;;;19.27;17.03;;;;;;;10.99;66.76;100587.44;6142361;29;20235;-49
2021/05/15 03:31:08;;;;;;;17.90;16.00;;;;;;;11.34;66.17;100586.03;6150218;28;20231;-44
2021/05/15 03:34:28;;;;;;;18.20;16.10;;;;;;;11.07;66.79;100588.22;6138629;29;20238;-46
2021/05/15 03:37:49;;;;;;;19.67;17.53;;;;;;;10.98;66.39;100588.34;6141087;28;20239;-48
2021/05/15 03:41:10;;;;;;;20.27;16.80;;;;;;;11.01;67.33;100577.84;6134123;28;20236;-48
2021/05/15 03:44:30;;;;;;;20.87;16.07;;;;;;;10.99;66.73;100575.28;6139273;28;20559;-49
2021/05/15 03:47:50;;;;;;;20.63;17.00;;;;;;;10.92;65.74;100580.63;6141365;28;20757;-47
2021/05/15 03:51:11;;;;;;;22.30;16.67;;;;;;;10.37;67.85;100583.06;6143044;28;20600;-45
2021/05/15 03:54:32;;;;;;;18.67;16.20;;;;;;;10.59;67.13;100574.97;6128268;28;20231;-49
2021/05/15 03:57:53;;;;;;;22.27;16.53;;;;;;;10.53;67.48;100575.06;6141225;28;20656;-46
2021/05/15 04:01:13;;;;;;;22.77;15.40;;;;;;;10.74;67.44;100569.56;6142753;28;20239;-51
2021/05/15 04:04:36;;;;;;;18.93;14.83;;;;;;;10.68;66.92;100584.41;6140773;28;20247;-47
2021/05/15 04:07:57;;;;;;;18.27;14.53;;;;;;;10.63;66.15;100574.06;6140772;28;20690;-44
2021/05/15 04:11:18;;;;;;;23.50;16.33;;;;;;;10.36;66.96;100572.66;6133306;28;20239;-47
2021/05/15 04:14:42;;;;;;;21.57;16.13;;;;;;;10.81;66.24;100581.59;6145184;28;20257;-44
2021/05/15 04:18:07;;;;;;;20.53;17.20;;;;;;;10.93;65.49;100582.31;6139428;28;20238;-47
2021/05/15 04:21:27;;;;;;;17.17;15.30;;;;;;;11.08;65.50;100581.25;6130636;28;20410;-48
2021/05/15 04:24:47;;;;;;;18.27;14.90;;;;;;;10.89;65.57;100573.69;6144191;28;20326;-46
2021/05/15 04:28:09;;;;;;;18.93;16.37;;;;;;;11.37;64.46;100570.38;6140754;29;20605;-48
2021/05/15 04:31:29;;;;;;;21.83;15.63;;;;;;;11.37;64.16;100570.38;6141270;28;20235;-48
2021/05/15 04:34:50;;;;;;;19.40;15.00;;;;;;;11.54;63.62;100570.94;6141006;28;20588;-51
2021/05/15 04:38:12;;;;;;;21.63;16.90;;;;;;;11.46;63.74;100570.22;6145604;28;20235;-46
2021/05/15 04:41:33;;;;;;;19.43;15.87;;;;;;;11.48;64.06;100567.59;6140960;28;20271;-47
2021/05/15 04:44:54;;;;;;;20.57;16.23;;;;;;;10.90;65.31;100562.41;6143443;29;20282;-47
2021/05/15 04:48:14;;;;;;;23.43;17.03;;;;;;;10.93;65.72;100561.47;6138017;28;20235;-50
2021/05/15 04:51:34;;;;;;;18.07;16.17;;;;;;;11.40;64.01;100568.56;6147658;28;20765;-48
2021/05/15 04:54:55;;;;;;;20.00;17.73;;;;;;;11.29;64.87;100560.06;6146914;28;20235;-47
2021/05/15 04:58:15;;;;;;;19.33;16.00;;;;;;;11.41;64.05;100556.41;6141428;28;20243;-48
2021/05/15 05:01:37;;;;;;;20.67;16.57;;;;;;;10.35;66.76;100569.22;6140618;28;20441;-47
2021/05/15 05:04:57;;;;;;;19.00;15.87;;;;;;;10.11;67.50;100561.63;6144427;29;20238;-45
2021/05/15 05:08:18;;;;;;;20.17;15.60;;;;;;;10.16;67.86;100570.28;6144720;28;20326;-48
2021/05/15 05:11:38;;;;;;;18.63;16.67;;;;;;;9.89;69.05;100569.69;6147204;28;20723;-45
2021/05/15 05:14:59;;;;;;;17.07;15.23;;;;;;;9.90;68.97;100568.78;6142214;29;20314;-48
2021/05/15 05:18:20;;;;;;;16.00;14.33;;;;;;;10.40;66.86;100575.19;6146470;28;20238;-51
2021/05/15 05:21:41;;;;;;;18.20;15.03;;;;;;;9.94;67.92;100574.81;6144544;28;20235;-48
2021/05/15 05:25:02;;;;;;;20.10;15.67;;;;;;;10.03;68.11;100572.97;6141972;29;20239;-46
2021/05/15 05:28:25;;;;;;;21.53;17.03;;;;;;;10.40;66.70;100584.75;6144161;28;20528;-50
2021/05/15 05:31:46;;;;;;;20.23;16.97;;;;;;;10.10;67.82;100580.72;6143243;28;20238;-49
2021/05/15 05:35:09;;;;;;;18.10;16.07;;;;;;;10.32;66.83;100584.84;6142627;28;20613;-51
2021/05/15 05:38:29;;;;;;;23.37;17.37;;;;;;;11.01;65.34;100583.06;6139664;28;20227;-50
2021/05/15 05:41:50;;;;;;;18.93;15.97;;;;;;;10.76;65.35;100583.44;6140228;28;20334;-49
2021/05/15 05:45:12;;;;;;;18.17;15.37;;;;;;;10.64;65.96;100580.97;6143044;28;20231;-48
2021/05/15 05:48:32;;;;;;;21.77;16.07;;;;;;;10.99;64.66;100584.84;6146660;28;20226;-46
2021/05/15 05:51:53;;;;;;;17.03;14.37;;;;;;;10.98;64.19;100576.16;6137592;28;20227;-49
2021/05/15 05:55:14;;;;;;;22.13;16.00;;;;;;;10.61;65.46;100588.84;6142854;29;20227;-46
2021/05/15 05:58:35;;;;;;;18.50;15.27;;;;;;;10.77;64.37;100592.94;6141613;28;20255;-51
2021/05/15 06:01:55;;;;;;;19.03;15.30;;;;;;;10.72;64.18;100596.50;6143198;28;20543;-48
2021/05/15 06:05:15;;;;;;;20.33;18.03;;;;;;;10.48;65.57;100598.53;6139786;28;20238;-50
2021/05/15 06:08:37;;;;;;;20.80;17.57;;;;;;;10.86;63.76;100585.88;6140776;28;20575;-46
2021/05/15 06:11:58;;;;;;;22.93;18.20;;;;;;;10.07;66.61;100592.03;6141681;28;20270;-45
2021/05/15 06:15:18;;;;;;;20.17;16.30;;;;;;;10.57;65.20;100588.00;6141458;29;20538;-49
2021/05/15 06:18:39;;;;;;;18.20;16.17;;;;;;;11.07;63.73;100583.00;6139327;28;20239;-47
2021/05/15 06:21:59;;;;;;;23.23;16.80;;;;;;;10.78;64.58;100589.47;6139644;29;20606;-47
2021/05/15 06:25:20;;;;;;;20.33;15.80;;;;;;;10.80;64.78;100589.47;6141838;29;20231;-50
2021/05/15 06:28:41;;;;;;;23.40;17.03;;;;;;;11.19;63.26;100582.81;6138996;28;20236;-47
2021/05/15 06:32:01;;;;;;;19.73;17.17;;;;;;;11.19;63.17;100589.78;6131467;28;20254;-47
2021/05/15 06:35:22;;;;;;;20.37;16.27;;;;;;;10.69;64.83;100588.75;6142642;28;20239;-45
2021/05/15 06:38:42;;;;;;;19.90;16.60;;;;;;;10.95;64.46;100591.88;6127175;28;20230;-49
2021/05/15 06:42:04;;;;;;;20.10;16.20;;;;;;;10.70;64.45;100587.84;6139201;28;20318;-46
2021/05/15 06:45:26;;;;;;;17.23;14.60;;;;;;;11.18;63.83;100586.28;6133132;29;20601;-45
2021/05/15 06:48:46;;;;;;;17.63;15.17;;;;;;;11.57;62.67;100583.06;6129241;28;20258;-51
2021/05/15 06:52:07;;;;;;;17.40;14.10;;;;;;;12.10;61.29;100575.22;6140493;28;20259;-51
2021/05/15 06:55:28;;;;;;;17.13;14.27;;;;;;;12.20;60.25;100584.59;6141890;28;20235;-45
2021/05/15 06:58:49;;;;;;;15.27;13.67;;;;;;;11.65;61.93;100589.03;6138843;28;20239;-51
2021/05/15 07:02:10;;;;;;;18.37;14.33;;;;;;;11.91;61.27;100580.75;6135599;28;20239;-50
2021/05/15 07:05:30;;;;;;;17.30;14.77;;;;;;;12.00;60.97;100585.81;6137044;28;20227;-47
2021/05/15 07:08:51;;;;;;;18.73;15.40;;;;;;;12.25;60.19;100576.66;6138919;28;20751;-51
2021/05/15 07:12:12;;;;;;;19.07;15.90;;;;;;;12.37;59.92;100577.28;6137514;29;20235;-50
2021/05/15 07:15:33;;;;;;;13.73;12.40;;;;;;;12.48;64.84;100574.44;6138539;29;20419;-53
2021/05/15 07:18:53;;;;;;;20.10;17.03;;;;;;;12.15;61.36;100573.34;6137911;28;20310;-48
2021/05/15 07:22:14;;;;;;;23.37;21.00;;;;;;;12.06;61.65;100576.13;6133184;28;20616;-49
2021/05/15 07:25:34;;;;;;;21.00;18.83;;;;;;;12.24;61.36;100570.56;6141651;29;20235;-49
2021/05/15 07:28:55;;;;;;;21.23;18.13;;;;;;;11.65;62.40;100575.09;6146756;28;20232;-51
2021/05/15 07:32:17;;;;;;;22.00;19.63;;;;;;;11.11;63.63;100569.03;6138755;29;20235;-51
2021/05/15 07:35:37;;;;;;;21.93;19.63;;;;;;;12.37;60.93;100561.59;6141375;28;20235;-45
2021/05/15 07:38:58;;;;;;;21.50;18.93;;;;;;;12.24;60.25;100564.50;6139675;28;20231;-44
2021/05/15 07:42:18;;;;;;;24.07;21.60;;;;;;;12.46;59.56;100567.53;6131942;28;20247;-51
2021/05/15 07:45:39;;;;;;;23.33;21.00;;;;;;;11.83;61.78;100564.38;6141312;28;20223;-47
2021/05/15 07:49:00;;;;;;;22.47;20.07;;;;;;;12.37;59.61;100560.75;6146762;28;20231;-50
2021/05/15 07:52:20;;;;;;;28.03;25.00;;;;;;;11.51;62.21;100562.31;6144439;28;20591;-47
2021/05/15 07:55:41;;;;;;;24.67;22.10;;;;;;;12.73;59.66;100560.84;6145447;29;20223;-48
2021/05/15 07:59:01;;;;;;;23.77;21.40;;;;;;;13.40;57.15;100558.44;6146671;28;20318;-46
2021/05/15 08:02:27;;;;;;;24.97;22.50;;;;;;;13.15;57.89;100553.78;6141979;29;20239;-48
2021/05/15 08:05:48;;;;;;;24.40;21.83;;;;;;;13.13;57.87;100552.97;6144750;28;20251;-51
2021/05/15 08:09:09;;;;;;;20.80;18.70;;;;;;;13.37;57.10;100550.66;6161898;28;20254;-51
2021/05/15 08:12:29;;;;;;;24.07;21.20;;;;;;;13.34;57.55;100562.06;6138233;28;20466;-48
2021/05/15 08:15:50;;;;;;;24.13;21.57;;;;;;;13.16;57.67;100557.25;6144502;28;20239;-48
2021/05/15 08:19:10;;;;;;;23.93;21.43;;;;;;;13.52;56.89;100560.75;6157999;28;20238;-50
2021/05/15 08:22:32;;;;;;;26.27;23.57;;;;;;;12.20;60.37;100575.00;6135258;28;20241;-47
2021/05/15 08:25:52;;;;;;;25.83;23.17;;;;;;;11.56;62.40;100571.78;6137778;28;20537;-47
2021/05/15 08:29:14;;;;;;;24.10;21.50;;;;;;;12.55;60.57;100562.97;6136155;28;20235;-47
2021/05/15 08:32:35;;;;;;;24.10;21.57;;;;;;;12.66;59.99;100562.75;6145212;29;20220;-47
2021/05/15 08:35:55;;;;;;;26.17;23.37;;;;;;;12.99;58.14;100562.88;6137029;29;20260;-48
2021/05/15 08:39:16;;;;;;;17.13;14.60;;;;;;;13.45;62.70;100564.41;6148544;28;20235;-49
2021/05/15 08:42:39;;;;;;;22.97;20.63;;;;;;;13.33;60.32;100562.09;6140611;28;20235;-49
2021/05/15 08:46:01;;;;;;;24.50;22.10;;;;;;;13.77;57.95;100550.50;6137433;28;20502;-49
2021/05/15 08:49:23;;;;;;;25.40;21.80;;;;;;;13.63;57.77;100562.22;6152717;28;20243;-48
2021/05/15 08:52:46;;;;;;;24.87;22.20;;;;;;;12.53;61.28;100566.50;6142567;28;20318;-48
2021/05/15 08:56:08;;;;;;;21.40;19.40;;;;;;;13.44;59.67;100560.09;6142006;28;20239;-48
2021/05/15 08:59:29;;;;;;;23.77;21.37;;;;;;;13.04;57.84;100557.53;6140235;28;20231;-51
2021/05/15 09:02:54;;;;;;;24.60;22.13;;;;;;;13.75;57.31;100554.06;6130119;28;20231;-51
2021/05/15 09:06:14;;;;;;;23.77;21.33;;;;;;;13.37;57.26;100556.75;6143971;28;20263;-50
2021/05/15 09:09:35;;;;;;;29.33;19.87;;;;;;;13.38;57.57;100555.88;6141258;28;20227;-47
2021/05/15 09:13:07;;;;;;;24.63;22.13;;;;;;;13.70;56.45;100542.84;6139780;29;20586;-47
2021/05/15 09:16:28;;;;;;;23.33;21.03;;;;;;;12.71;59.24;100542.59;6140411;28;20322;-48
2021/05/15 09:19:52;;;;;;;23.57;21.03;;;;;;;12.40;60.17;100543.25;6139230;28;21528;-47
2021/05/15 09:23:15;;;;;;;22.30;20.03;;;;;;;12.41;59.63;100536.28;6133597;28;20242;-50
2021/05/15 09:26:36;;;;;;;20.97;18.57;;;;;;;14.49;54.49;100529.28;6130617;28;20613;-46
2021/05/15 09:29:57;;;;;;;21.70;19.30;;;;;;;14.69;52.73;100520.00;6137060;28;20246;-48
2021/05/15 09:33:19;;;;;;;21.77;17.53;;;;;;;14.45;54.30;100526.81;6141829;28;20231;-48
2021/05/15 09:36:43;;;;;;;22.40;20.10;;;;;;;13.57;56.20;100519.66;6141611;28;20228;-50
2021/05/15 09:40:15;;;;;;;20.60;18.50;;;;;;;15.61;52.43;100505.66;6142615;28;20614;-51
2021/05/15 09:43:35;;;;;;;21.77;18.07;;;;;;;16.26;50.27;100499.78;6139778;28;20278;-46
2021/05/15 09:46:57;;;;;;;22.80;20.40;;;;;;;16.31;49.55;100502.25;6142495;28;20231;-47
2021/05/15 09:50:19;;;;;;;19.90;17.93;;;;;;;16.42;50.10;100496.56;6144626;28;20235;-51
2021/05/15 09:53:40;;;;;;;22.57;20.23;;;;;;;16.29;51.06;100494.44;6136794;28;20232;-46
2021/05/15 09:57:01;;;;;;;20.57;17.63;;;;;;;16.18;50.06;100485.25;6141884;28;20247;-48
2021/05/15 10:00:23;;;;;;;20.87;18.67;;;;;;;17.34;49.56;100490.28;6143403;28;20232;-51
2021/05/15 10:03:48;;;;;;;23.07;19.63;;;;;;;17.87;46.60;100489.78;6140622;29;20243;-49
2021/05/15 10:07:15;;;;;;;22.80;18.60;;;;;;;18.01;46.88;100485.63;6130880;28;20242;-46
2021/05/15 10:10:36;;;;;;;20.27;16.37;;;;;;;17.80;47.57;100483.03;6140239;28;20227;-48
2021/05/15 10:13:56;;;;;;;25.77;16.97;;;;;;;16.91;48.21;100492.06;6138186;29;20589;-49
2021/05/15 10:17:17;;;;;;;21.67;18.23;;;;;;;16.23;48.44;100486.78;6138485;28;20632;-48
2021/05/15 10:20:39;;;;;;;22.67;17.87;;;;;;;15.02;52.08;100483.13;6150357;28;20506;-50
2021/05/15 10:24:00;;;;;;;18.97;16.00;;;;;;;16.69;49.08;100477.13;6139120;29;20227;-50
2021/05/15 10:27:20;;;;;;;17.53;15.57;;;;;;;18.34;46.50;100466.56;6143335;28;20243;-47
2021/05/15 10:30:41;;;;;;;20.77;18.50;;;;;;;17.09;46.40;100470.25;6140972;28;20498;-50
2021/05/15 10:34:02;;;;;;;20.10;16.07;;;;;;;18.01;46.19;100464.56;6135951;28;20664;-49
2021/05/15 10:37:24;;;;;;;24.10;16.70;;;;;;;18.05;45.36;100455.63;6138060;28;20545;-48
2021/05/15 10:40:47;;;;;;;20.17;16.17;;;;;;;17.68;45.79;100452.81;6146958;28;20243;-51
2021/05/15 10:44:11;;;;;;;16.33;14.67;;;;;;;18.16;44.54;100442.78;6142167;29;20330;-50
2021/05/15 10:47:40;;;;;;;19.03;15.30;;;;;;;16.66;47.95;100445.69;6142349;29;20239;-49
2021/05/15 10:51:02;;;;;;;17.83;14.73;;;;;;;17.03;47.99;100448.63;6138661;28;20492;-50
2021/05/15 10:54:32;;;;;;;19.03;14.50;;;;;;;17.32;47.18;100428.97;6140918;29;20569;-46
2021/05/15 10:57:52;;;;;;;19.07;15.83;;;;;;;17.57;46.52;100425.25;6139499;28;20250;-48
2021/05/15 11:01:15;;;;;;;21.03;15.40;;;;;;;17.22;47.47;100423.25;6137093;28;20235;-46
2021/05/15 11:04:48;;;;;;;17.27;13.18;;;;;;;18.01;45.51;100418.00;6138485;29;20239;-50
2021/05/15 11:08:21;;;;;;;15.90;12.77;;;;;;;18.66;44.43;100413.13;6154152;28;20272;-52
2021/05/15 11:11:44;;;;;;;20.35;15.02;;;;;;;18.38;43.85;100399.59;6133228;29;20730;-51
2021/05/15 11:15:07;;;;;;;17.52;14.50;;;;;;;17.82;44.76;100410.06;6141210;29;20329;-52
2021/05/15 11:18:29;;;;;;;17.98;13.52;;;;;;;18.01;44.83;100394.31;6108644;28;20262;-48
2021/05/15 11:21:53;;;;;;;18.55;14.73;;;;;;;19.51;42.08;100386.91;6142763;29;20231;-49
2021/05/15 11:25:20;;;;;;;18.93;13.27;;;;;;;19.78;41.08;100380.19;6140832;29;20243;-46
2021/05/15 11:28:42;;;;;;;18.08;13.10;;;;;;;19.93;40.63;100374.97;6147651;28;20223;-50
2021/05/15 11:32:08;;;;;;;16.63;12.88;;;;;;;18.19;43.72;100360.94;6140721;29;20275;-46
2021/05/15 11:35:31;;;;;;;18.17;13.75;;;;;;;19.58;42.17;100351.28;6140892;28;20239;-49
2021/05/15 11:38:57;;;;;;;15.52;12.57;;;;;;;19.26;41.02;100348.59;6143711;28;20243;-47
2021/05/15 11:42:18;;;;;;;14.88;11.60;;;;;;;17.74;44.01;100362.16;6124941;29;20255;-49
2021/05/15 11:45:39;;;;;;;15.40;11.98;;;;;;;19.24;41.93;100343.41;6138444;29;20502;-51
2021/05/15 11:49:00;;;;;;;13.73;11.25;;;;;;;18.39;42.69;100349.44;6141575;29;20235;-46
2021/05/15 11:52:29;;;;;;;15.85;11.82;;;;;;;19.76;40.62;100345.06;6142000;29;20326;-50
2021/05/15 11:55:50;;;;;;;15.73;11.75;;;;;;;19.25;41.76;100347.75;6136229;28;20231;-48
2021/05/15 11:59:11;;;;;;;17.02;12.45;;;;;;;19.19;41.87;100344.56;6138742;28;21643;-48
2021/05/15 12:02:32;;;;;;;14.80;11.45;;;;;;;16.92;46.33;100346.47;6141098;29;20235;-51
2021/05/15 12:05:53;;;;;;;18.45;14.18;;;;;;;17.19;46.39;100344.41;6141291;29;20250;-52
2021/05/15 12:09:15;;;;;;;15.48;13.07;;;;;;;16.92;47.75;100342.09;6138727;28;20238;-51
2021/05/15 12:12:36;;;;;;;15.50;13.53;;;;;;;17.39;47.30;100337.41;6141692;29;20231;-52
2021/05/15 12:15:57;;;;;;;15.87;11.97;;;;;;;18.75;45.56;100318.69;6136206;28;20231;-49
2021/05/15 12:19:21;;;;;;;15.43;12.45;;;;;;;18.95;43.88;100318.53;6134588;29;20261;-51
2021/05/15 12:22:42;;;;;;;16.37;12.47;;;;;;;18.92;44.29;100313.44;6139141;28;20653;-48
2021/05/15 12:26:06;;;;;;;13.98;12.07;;;;;;;18.60;44.46;100310.59;6140341;29;20609;-51
2021/05/15 12:29:29;;;;;;;14.40;11.67;;;;;;;18.06;45.09;100307.13;6135834;28;20227;-51
2021/05/15 12:33:00;;;;;;;13.40;12.03;;;;;;;17.90;45.97;100305.22;6138255;28;20235;-49
2021/05/15 12:36:21;;;;;;;11.13;7.73;;;;;;;18.02;52.68;100306.41;6142700;28;20617;-48
2021/05/15 12:39:42;;;;;;;10.20;8.27;;;;;;;17.96;50.62;100298.81;6133489;28;20231;-48
2021/05/15 12:43:09;;;;;;;14.60;11.60;;;;;;;18.01;48.52;100291.56;6141625;28;20231;-52
2021/05/15 12:46:33;;;;;;;17.60;13.57;;;;;;;17.63;48.73;100290.69;6133965;28;20590;-49
2021/05/15 12:49:53;;;;;;;14.50;10.40;;;;;;;17.79;50.61;100286.41;6137883;28;20317;-52
2021/05/15 12:53:14;;;;;;;12.27;10.73;;;;;;;18.10;50.27;100290.25;6131759;28;20227;-50
2021/05/15 12:56:36;;;;;;;14.30;11.37;;;;;;;18.13;49.38;100279.56;6124093;28;20235;-48
2021/05/15 12:59:56;;;;;;;14.43;12.32;;;;;;;18.14;48.24;100277.78;6136588;28;20235;-51
2021/05/15 13:03:17;;;;;;;14.67;13.17;;;;;;;17.74;49.56;100282.28;6137954;28;20239;-49
2021/05/15 13:06:38;;;;;;;13.57;11.07;;;;;;;17.67;50.80;100284.38;6138958;28;20262;-51
2021/05/15 13:10:00;;;;;;;12.37;11.00;;;;;;;17.47;51.14;100277.41;6141901;28;20235;-51
2021/05/15 13:13:21;;;;;;;12.60;11.33;;;;;;;17.77;52.15;100268.97;6138226;28;20344;-50
2021/05/15 13:16:41;;;;;;;12.33;10.83;;;;;;;17.99;51.81;100271.47;6141543;28;20226;-49
2021/05/15 13:20:01;;;;;;;19.67;14.13;;;;;;;17.56;52.20;100268.22;6138704;28;20259;-50
2021/05/15 13:23:22;;;;;;;17.07;13.13;;;;;;;17.21;52.17;100273.31;6139941;28;20335;-48
2021/05/15 13:26:43;;;;;;;14.73;12.40;;;;;;;17.58;50.56;100269.00;6132500;28;20629;-48
2021/05/15 13:30:05;;;;;;;14.00;12.50;;;;;;;17.72;50.38;100266.59;6135808;28;20262;-50
2021/05/15 13:33:25;;;;;;;15.40;12.43;;;;;;;17.93;50.67;100263.84;6136244;28;20235;-50
2021/05/15 13:36:46;;;;;;;13.83;10.47;;;;;;;17.67;51.12;100255.41;6128908;28;20231;-51
2021/05/15 13:40:07;;;;;;;17.27;13.30;;;;;;;17.47;53.26;100273.00;6130599;28;20232;-48
2021/05/15 13:43:29;;;;;;;16.83;14.00;;;;;;;16.94;55.51;100281.50;6133093;28;20317;-50
2021/05/15 13:46:51;;;;;;;16.03;13.83;;;;;;;16.32;58.32;100291.13;6132206;28;20239;-46
2021/05/15 13:50:12;;;;;;;9.87;7.37;;;;;;;14.54;59.58;100314.31;6137414;28;20790;-48
2021/05/15 13:53:33;;;;;;;4.03;3.63;;;;;;;14.17;59.28;100312.88;6138129;28;20613;-47
2021/05/15 13:56:54;;;;;;;3.23;2.97;;;;;;;13.99;59.49;100299.44;6137290;28;20531;-48
2021/05/15 14:00:16;;;;;;;3.73;3.07;;;;;;;14.08;59.92;100298.31;6132870;28;20518;-51
2021/05/15 14:03:38;;;;;;;5.73;3.37;;;;;;;14.16;59.82;100308.56;6135513;28;20262;-52
2021/05/15 14:06:58;;;;;;;4.93;4.37;;;;;;;13.98;60.04;100302.16;6135904;28;20223;-47
2021/05/15 14:10:19;;;;;;;4.00;3.03;;;;;;;14.12;59.80;100299.09;6131267;28;20688;-49
2021/05/15 14:13:39;;;;;;;4.17;3.60;;;;;;;14.33;60.26;100287.91;6133249;28;20322;-48
2021/05/15 14:17:01;;;;;;;4.13;3.40;;;;;;;14.70;59.66;100293.72;6129800;28;20239;-51
2021/05/15 14:20:21;;;;;;;3.73;2.73;;;;;;;14.79;59.71;100290.75;6129800;28;20314;-49
2021/05/15 14:23:42;;;;;;;4.70;3.00;;;;;;;14.79;59.82;100279.41;6131254;28;20613;-48
2021/05/15 14:27:02;;;;;;;3.60;2.80;;;;;;;15.02;59.43;100274.22;6129771;28;20227;-51
2021/05/15 14:30:24;;;;;;;3.93;3.43;;;;;;;14.92;59.74;100270.22;6130509;28;20310;-46
2021/05/15 14:33:45;;;;;;;5.73;2.77;;;;;;;15.04;59.54;100268.91;6130206;28;20235;-50
2021/05/15 14:37:06;;;;;;;3.07;2.73;;;;;;;15.14;58.64;100258.03;6130603;28;20220;-48
2021/05/15 14:40:28;;;;;;;3.03;2.63;;;;;;;15.34;58.53;100252.03;6129380;28;20318;-47
2021/05/15 14:43:48;;;;;;;2.60;2.40;;;;;;;15.48;57.06;100251.53;6130931;28;20240;-51
2021/05/15 14:47:09;;;;;;;2.63;2.43;;;;;;;15.86;56.26;100236.09;6133650;28;20235;-47
2021/05/15 14:50:30;;;;;;;4.20;2.83;;;;;;;15.82;56.69;100237.13;6137976;28;20476;-48
2021/05/15 14:53:51;;;;;;;3.27;2.80;;;;;;;15.76;56.69;100232.13;6108340;28;20574;-51
2021/05/15 14:57:11;;;;;;;2.33;2.13;;;;;;;15.11;57.43;100234.53;6133568;28;20334;-49
2021/05/15 15:00:32;;;;;;;3.17;2.83;;;;;;;15.40;56.84;100232.59;6119530;28;20318;-49
2021/05/15 15:03:52;;;;;;;4.57;2.50;;;;;;;15.34;57.89;100230.22;6127403;28;20242;-48
2021/05/15 15:07:13;;;;;;;5.20;4.27;;;;;;;15.75;57.07;100219.91;6129629;28;20239;-49
2021/05/15 15:10:34;;;;;;;5.27;3.07;;;;;;;16.10;56.43;100228.97;6132696;28;20267;-46
2021/05/15 15:13:54;;;;;;;3.37;3.07;;;;;;;16.02;56.25;100217.06;6128748;28;20230;-49
2021/05/15 15:17:15;;;;;;;5.37;4.00;;;;;;;15.92;57.38;100216.59;6130599;28;20234;-51
2021/05/15 15:20:35;;;;;;;3.70;3.40;;;;;;;16.02;56.38;100217.06;6129681;28;20235;-50